sensor_id;sensor_type;location;lat;lon;timestamp;P1;P2;P0
70915;PMS5003;58557;50.982;-3.222;2022-09-30T00:02:07;28;26;
70915;PMS5003;58557;50.982;-3.222;2022-09-30T00:04:32;27;24;
70915;PMS5003;58557;50.982;-3.222;2022-09-30T00:07:02;32;30;
70915;PMS5003;58557;50.982;-3.222;2022-09-30T00:09:27;34;29;
70915;PMS5003;58557;50.982;-3.222;2022-09-30T00:11:52;27;23;
70915;PMS5003;58557;50.982;-3.222;2022-09-30T00:14:18;32;30;
70915;PMS5003;58557;50.982;-3.222;2022-09-30T00:16:44;29;27;
70915;PMS5003;58557;50.982;-3.222;2022-09-30T00:19:04;27;25;
70915;PMS5003;58557;50.982;-3.222;2022-09-30T00:21:30;31;29;
70915;PMS5003;58557;50.982;-3.222;2022-09-30T00:23:55;27;23;
70915;PMS5003;58557;50.982;-3.222;2022-09-30T00:26:21;30;30;
70915;PMS5003;58557;50.982;-3.222;2022-09-30T00:28:49;29;28;
70915;PMS5003;58557;50.982;-3.222;2022-09-30T00:31:12;34;32;
70915;PMS5003;58557;50.982;-3.222;2022-09-30T00:33:37;29;29;
70915;PMS5003;58557;50.982;-3.222;2022-09-30T00:36:02;24;21;
70915;PMS5003;58557;50.982;-3.222;2022-09-30T00:38:27;37;33;
70915;PMS5003;58557;50.982;-3.222;2022-09-30T00:40:52;34;33;
70915;PMS5003;58557;50.982;-3.222;2022-09-30T00:45:45;25;25;
70915;PMS5003;58557;50.982;-3.222;2022-09-30T00:48:09;28;28;
70915;PMS5003;58557;50.982;-3.222;2022-09-30T00:50:35;23;21;
70915;PMS5003;58557;50.982;-3.222;2022-09-30T00:53:01;22;21;
70915;PMS5003;58557;50.982;-3.222;2022-09-30T00:55:26;24;23;
70915;PMS5003;58557;50.982;-3.222;2022-09-30T00:57:51;34;29;
70915;PMS5003;58557;50.982;-3.222;2022-09-30T01:00:21;29;28;
70915;PMS5003;58557;50.982;-3.222;2022-09-30T01:02:46;24;23;
70915;PMS5003;58557;50.982;-3.222;2022-09-30T01:05:07;28;25;
70915;PMS5003;58557;50.982;-3.222;2022-09-30T01:07:38;30;24;
70915;PMS5003;58557;50.982;-3.222;2022-09-30T01:10:03;23;21;
70915;PMS5003;58557;50.982;-3.222;2022-09-30T01:12:23;35;30;
70915;PMS5003;58557;50.982;-3.222;2022-09-30T01:14:54;35;29;
70915;PMS5003;58557;50.982;-3.222;2022-09-30T01:17:20;27;24;
70915;PMS5003;58557;50.982;-3.222;2022-09-30T01:22:20;29;29;
70915;PMS5003;58557;50.982;-3.222;2022-09-30T01:24:38;34;29;
70915;PMS5003;58557;50.982;-3.222;2022-09-30T01:26:58;26;23;
70915;PMS5003;58557;50.982;-3.222;2022-09-30T01:31:48;32;30;
70915;PMS5003;58557;50.982;-3.222;2022-09-30T01:34:13;30;27;
70915;PMS5003;58557;50.982;-3.222;2022-09-30T01:36:42;33;31;
70915;PMS5003;58557;50.982;-3.222;2022-09-30T01:39:08;39;36;
70915;PMS5003;58557;50.982;-3.222;2022-09-30T01:41:32;36;33;
70915;PMS5003;58557;50.982;-3.222;2022-09-30T01:43:56;37;36;
70915;PMS5003;58557;50.982;-3.222;2022-09-30T01:46:21;34;26;
70915;PMS5003;58557;50.982;-3.222;2022-09-30T01:48:45;33;29;
70915;PMS5003;58557;50.982;-3.222;2022-09-30T01:51:11;44;39;
70915;PMS5003;58557;50.982;-3.222;2022-09-30T01:53:42;36;34;
70915;PMS5003;58557;50.982;-3.222;2022-09-30T01:56:03;29;27;
70915;PMS5003;58557;50.982;-3.222;2022-09-30T01:58:31;34;33;
70915;PMS5003;58557;50.982;-3.222;2022-09-30T02:00:54;35;34;
70915;PMS5003;58557;50.982;-3.222;2022-09-30T02:03:19;28;28;
70915;PMS5003;58557;50.982;-3.222;2022-09-30T02:05:44;30;30;
70915;PMS5003;58557;50.982;-3.222;2022-09-30T02:08:11;33;30;
70915;PMS5003;58557;50.982;-3.222;2022-09-30T02:10:37;36;28;
70915;PMS5003;58557;50.982;-3.222;2022-09-30T02:13:01;33;31;
70915;PMS5003;58557;50.982;-3.222;2022-09-30T02:15:26;32;29;
70915;PMS5003;58557;50.982;-3.222;2022-09-30T02:17:57;36;36;
70915;PMS5003;58557;50.982;-3.222;2022-09-30T02:20:17;42;35;
70915;PMS5003;58557;50.982;-3.222;2022-09-30T02:22:47;34;31;
70915;PMS5003;58557;50.982;-3.222;2022-09-30T02:25:08;38;31;
70915;PMS5003;58557;50.982;-3.222;2022-09-30T02:27:33;30;30;
70915;PMS5003;58557;50.982;-3.222;2022-09-30T02:29:58;31;29;
70915;PMS5003;58557;50.982;-3.222;2022-09-30T02:32:25;30;28;
70915;PMS5003;58557;50.982;-3.222;2022-09-30T02:34:55;35;33;
70915;PMS5003;58557;50.982;-3.222;2022-09-30T02:37:15;37;36;
70915;PMS5003;58557;50.982;-3.222;2022-09-30T02:39:40;32;30;
70915;PMS5003;58557;50.982;-3.222;2022-09-30T02:42:10;27;27;
70915;PMS5003;58557;50.982;-3.222;2022-09-30T02:44:30;38;30;
70915;PMS5003;58557;50.982;-3.222;2022-09-30T02:46:57;41;36;
70915;PMS5003;58557;50.982;-3.222;2022-09-30T02:49:22;39;35;
70915;PMS5003;58557;50.982;-3.222;2022-09-30T02:51:51;33;29;
70915;PMS5003;58557;50.982;-3.222;2022-09-30T02:54:14;39;34;
70915;PMS5003;58557;50.982;-3.222;2022-09-30T02:56:43;39;36;
70915;PMS5003;58557;50.982;-3.222;2022-09-30T02:59:02;30;28;
70915;PMS5003;58557;50.982;-3.222;2022-09-30T03:01:32;34;33;
70915;PMS5003;58557;50.982;-3.222;2022-09-30T03:03:54;37;37;
70915;PMS5003;58557;50.982;-3.222;2022-09-30T03:06:24;30;29;
70915;PMS5003;58557;50.982;-3.222;2022-09-30T03:08:44;35;33;
70915;PMS5003;58557;50.982;-3.222;2022-09-30T03:11:11;30;27;
70915;PMS5003;58557;50.982;-3.222;2022-09-30T03:16:04;36;28;
70915;PMS5003;58557;50.982;-3.222;2022-09-30T03:18:32;37;33;
70915;PMS5003;58557;50.982;-3.222;2022-09-30T03:20:59;36;34;
70915;PMS5003;58557;50.982;-3.222;2022-09-30T03:23:22;33;29;
70915;PMS5003;58557;50.982;-3.222;2022-09-30T03:25:42;35;33;
70915;PMS5003;58557;50.982;-3.222;2022-09-30T03:28:09;38;33;
70915;PMS5003;58557;50.982;-3.222;2022-09-30T03:30:38;35;33;
70915;PMS5003;58557;50.982;-3.222;2022-09-30T03:33:03;33;31;
70915;PMS5003;58557;50.982;-3.222;2022-09-30T03:35:25;28;28;
70915;PMS5003;58557;50.982;-3.222;2022-09-30T03:37:50;33;29;
70915;PMS5003;58557;50.982;-3.222;2022-09-30T03:40:15;35;34;
70915;PMS5003;58557;50.982;-3.222;2022-09-30T03:42:42;36;32;
70915;PMS5003;58557;50.982;-3.222;2022-09-30T03:45:06;28;27;
70915;PMS5003;58557;50.982;-3.222;2022-09-30T03:47:37;38;34;
70915;PMS5003;58557;50.982;-3.222;2022-09-30T03:50:00;30;27;
70915;PMS5003;58557;50.982;-3.222;2022-09-30T03:52:29;27;26;
70915;PMS5003;58557;50.982;-3.222;2022-09-30T03:54:48;33;31;
70915;PMS5003;58557;50.982;-3.222;2022-09-30T03:57:12;27;27;
70915;PMS5003;58557;50.982;-3.222;2022-09-30T03:59:38;31;30;
70915;PMS5003;58557;50.982;-3.222;2022-09-30T04:02:09;38;33;
70915;PMS5003;58557;50.982;-3.222;2022-09-30T04:04:29;32;30;
70915;PMS5003;58557;50.982;-3.222;2022-09-30T04:06:55;30;28;
70915;PMS5003;58557;50.982;-3.222;2022-09-30T04:09:20;41;34;
70915;PMS5003;58557;50.982;-3.222;2022-09-30T04:11:50;31;28;
70915;PMS5003;58557;50.982;-3.222;2022-09-30T04:14:11;38;33;
70915;PMS5003;58557;50.982;-3.222;2022-09-30T04:16:41;36;33;
70915;PMS5003;58557;50.982;-3.222;2022-09-30T04:19:02;31;30;
70915;PMS5003;58557;50.982;-3.222;2022-09-30T04:21:27;36;32;
70915;PMS5003;58557;50.982;-3.222;2022-09-30T04:23:53;39;34;
70915;PMS5003;58557;50.982;-3.222;2022-09-30T04:26:18;32;28;
70915;PMS5003;58557;50.982;-3.222;2022-09-30T04:28:43;32;31;
70915;PMS5003;58557;50.982;-3.222;2022-09-30T04:31:14;34;27;
70915;PMS5003;58557;50.982;-3.222;2022-09-30T04:33:34;37;28;
70915;PMS5003;58557;50.982;-3.222;2022-09-30T04:36:00;30;26;
70915;PMS5003;58557;50.982;-3.222;2022-09-30T04:38:25;25;25;
70915;PMS5003;58557;50.982;-3.222;2022-09-30T04:40:56;31;26;
70915;PMS5003;58557;50.982;-3.222;2022-09-30T04:43:16;26;26;
70915;PMS5003;58557;50.982;-3.222;2022-09-30T04:45:47;33;32;
70915;PMS5003;58557;50.982;-3.222;2022-09-30T04:48:07;34;30;
70915;PMS5003;58557;50.982;-3.222;2022-09-30T04:50:32;27;27;
70915;PMS5003;58557;50.982;-3.222;2022-09-30T04:53:03;28;26;
70915;PMS5003;58557;50.982;-3.222;2022-09-30T04:55:26;32;28;
70915;PMS5003;58557;50.982;-3.222;2022-09-30T04:57:49;32;29;
70915;PMS5003;58557;50.982;-3.222;2022-09-30T05:00:15;39;38;
70915;PMS5003;58557;50.982;-3.222;2022-09-30T05:02:45;37;32;
70915;PMS5003;58557;50.982;-3.222;2022-09-30T05:05:10;36;31;
70915;PMS5003;58557;50.982;-3.222;2022-09-30T05:07:31;37;34;
70915;PMS5003;58557;50.982;-3.222;2022-09-30T05:09:57;37;33;
70915;PMS5003;58557;50.982;-3.222;2022-09-30T05:12:22;37;33;
70915;PMS5003;58557;50.982;-3.222;2022-09-30T05:14:48;30;27;
70915;PMS5003;58557;50.982;-3.222;2022-09-30T05:17:13;32;28;
70915;PMS5003;58557;50.982;-3.222;2022-09-30T05:19:42;34;33;
70915;PMS5003;58557;50.982;-3.222;2022-09-30T05:22:03;32;31;
70915;PMS5003;58557;50.982;-3.222;2022-09-30T05:24:28;33;32;
70915;PMS5003;58557;50.982;-3.222;2022-09-30T05:26:54;35;34;
70915;PMS5003;58557;50.982;-3.222;2022-09-30T05:29:19;35;35;
70915;PMS5003;58557;50.982;-3.222;2022-09-30T05:31:50;31;26;
70915;PMS5003;58557;50.982;-3.222;2022-09-30T05:34:10;33;31;
70915;PMS5003;58557;50.982;-3.222;2022-09-30T05:36:42;30;29;
70915;PMS5003;58557;50.982;-3.222;2022-09-30T05:39:03;32;30;
70915;PMS5003;58557;50.982;-3.222;2022-09-30T05:41:27;29;29;
70915;PMS5003;58557;50.982;-3.222;2022-09-30T05:43:58;34;32;
70915;PMS5003;58557;50.982;-3.222;2022-09-30T05:46:23;40;32;
70915;PMS5003;58557;50.982;-3.222;2022-09-30T05:48:44;29;28;
70915;PMS5003;58557;50.982;-3.222;2022-09-30T05:51:09;34;28;
70915;PMS5003;58557;50.982;-3.222;2022-09-30T05:53:36;39;35;
70915;PMS5003;58557;50.982;-3.222;2022-09-30T05:56:00;26;23;
70915;PMS5003;58557;50.982;-3.222;2022-09-30T05:58:26;28;25;
70915;PMS5003;58557;50.982;-3.222;2022-09-30T06:00:51;34;29;
70915;PMS5003;58557;50.982;-3.222;2022-09-30T06:03:21;31;28;
70915;PMS5003;58557;50.982;-3.222;2022-09-30T06:05:46;35;34;
70915;PMS5003;58557;50.982;-3.222;2022-09-30T06:08:12;31;28;
70915;PMS5003;58557;50.982;-3.222;2022-09-30T06:10:32;36;30;
70915;PMS5003;58557;50.982;-3.222;2022-09-30T06:12:57;27;26;
70915;PMS5003;58557;50.982;-3.222;2022-09-30T06:15:28;27;23;
70915;PMS5003;58557;50.982;-3.222;2022-09-30T06:17:53;28;24;
70915;PMS5003;58557;50.982;-3.222;2022-09-30T06:20:13;31;30;
70915;PMS5003;58557;50.982;-3.222;2022-09-30T06:22:44;28;27;
70915;PMS5003;58557;50.982;-3.222;2022-09-30T06:25:09;32;28;
70915;PMS5003;58557;50.982;-3.222;2022-09-30T06:27:29;28;28;
70915;PMS5003;58557;50.982;-3.222;2022-09-30T06:29:55;29;26;
70915;PMS5003;58557;50.982;-3.222;2022-09-30T06:32:25;41;34;
70915;PMS5003;58557;50.982;-3.222;2022-09-30T06:34:46;28;28;
70915;PMS5003;58557;50.982;-3.222;2022-09-30T06:37:13;29;29;
70915;PMS5003;58557;50.982;-3.222;2022-09-30T06:39:37;34;30;
70915;PMS5003;58557;50.982;-3.222;2022-09-30T06:42:02;27;26;
70915;PMS5003;58557;50.982;-3.222;2022-09-30T06:44:32;25;24;
70915;PMS5003;58557;50.982;-3.222;2022-09-30T06:46:57;21;21;
70915;PMS5003;58557;50.982;-3.222;2022-09-30T06:49:23;28;25;
70915;PMS5003;58557;50.982;-3.222;2022-09-30T06:51:43;30;29;
70915;PMS5003;58557;50.982;-3.222;2022-09-30T06:54:09;24;19;
70915;PMS5003;58557;50.982;-3.222;2022-09-30T06:56:34;24;22;
70915;PMS5003;58557;50.982;-3.222;2022-09-30T06:58:59;22;20;
70915;PMS5003;58557;50.982;-3.222;2022-09-30T07:01:30;23;22;
70915;PMS5003;58557;50.982;-3.222;2022-09-30T07:03:51;24;18;
70915;PMS5003;58557;50.982;-3.222;2022-09-30T07:06:16;20;18;
70915;PMS5003;58557;50.982;-3.222;2022-09-30T07:08:41;28;25;
70915;PMS5003;58557;50.982;-3.222;2022-09-30T07:11:07;31;28;
70915;PMS5003;58557;50.982;-3.222;2022-09-30T07:13:37;31;30;
70915;PMS5003;58557;50.982;-3.222;2022-09-30T07:15:58;21;21;
70915;PMS5003;58557;50.982;-3.222;2022-09-30T07:18:24;27;22;
70915;PMS5003;58557;50.982;-3.222;2022-09-30T07:20:49;28;28;
70915;PMS5003;58557;50.982;-3.222;2022-09-30T07:23:15;21;19;
70915;PMS5003;58557;50.982;-3.222;2022-09-30T07:28:06;25;23;
70915;PMS5003;58557;50.982;-3.222;2022-09-30T07:30:32;26;26;
70915;PMS5003;58557;50.982;-3.222;2022-09-30T07:32:57;17;17;
70915;PMS5003;58557;50.982;-3.222;2022-09-30T07:35:23;22;20;
70915;PMS5003;58557;50.982;-3.222;2022-09-30T07:37:53;18;18;
70915;PMS5003;58557;50.982;-3.222;2022-09-30T07:40:19;18;18;
70915;PMS5003;58557;50.982;-3.222;2022-09-30T07:42:39;16;16;
70915;PMS5003;58557;50.982;-3.222;2022-09-30T07:45:05;14;13;
70915;PMS5003;58557;50.982;-3.222;2022-09-30T07:47:31;15;14;
70915;PMS5003;58557;50.982;-3.222;2022-09-30T07:49:56;14;12;
70915;PMS5003;58557;50.982;-3.222;2022-09-30T07:52:22;9;9;
70915;PMS5003;58557;50.982;-3.222;2022-09-30T07:54:48;10;10;
70915;PMS5003;58557;50.982;-3.222;2022-09-30T07:57:19;6;6;
70915;PMS5003;58557;50.982;-3.222;2022-09-30T07:59:40;7;7;
70915;PMS5003;58557;50.982;-3.222;2022-09-30T08:02:06;14;11;
70915;PMS5003;58557;50.982;-3.222;2022-09-30T08:04:31;10;7;
70915;PMS5003;58557;50.982;-3.222;2022-09-30T08:06:58;12;10;
70915;PMS5003;58557;50.982;-3.222;2022-09-30T08:09:28;10;10;
70915;PMS5003;58557;50.982;-3.222;2022-09-30T08:11:49;9;7;
70915;PMS5003;58557;50.982;-3.222;2022-09-30T08:14:15;13;8;
70915;PMS5003;58557;50.982;-3.222;2022-09-30T08:16:40;12;8;
70915;PMS5003;58557;50.982;-3.222;2022-09-30T08:19:12;11;9;
70915;PMS5003;58557;50.982;-3.222;2022-09-30T08:21:32;12;11;
70915;PMS5003;58557;50.982;-3.222;2022-09-30T08:23:57;13;13;
70915;PMS5003;58557;50.982;-3.222;2022-09-30T08:26:23;11;11;
70915;PMS5003;58557;50.982;-3.222;2022-09-30T08:28:49;14;12;
70915;PMS5003;58557;50.982;-3.222;2022-09-30T08:31:16;11;11;
70915;PMS5003;58557;50.982;-3.222;2022-09-30T08:33:40;11;11;
70915;PMS5003;58557;50.982;-3.222;2022-09-30T08:36:07;10;10;
70915;PMS5003;58557;50.982;-3.222;2022-09-30T08:38:32;13;13;
70915;PMS5003;58557;50.982;-3.222;2022-09-30T08:41:02;11;9;
70915;PMS5003;58557;50.982;-3.222;2022-09-30T08:43:25;12;11;
70915;PMS5003;58557;50.982;-3.222;2022-09-30T08:45:52;9;8;
70915;PMS5003;58557;50.982;-3.222;2022-09-30T08:48:19;12;8;
70915;PMS5003;58557;50.982;-3.222;2022-09-30T08:50:43;15;11;
70915;PMS5003;58557;50.982;-3.222;2022-09-30T08:53:07;9;9;
70915;PMS5003;58557;50.982;-3.222;2022-09-30T08:55:34;9;8;
70915;PMS5003;58557;50.982;-3.222;2022-09-30T08:57:58;12;9;
70915;PMS5003;58557;50.982;-3.222;2022-09-30T09:00:24;14;12;
70915;PMS5003;58557;50.982;-3.222;2022-09-30T09:02:55;16;15;
70915;PMS5003;58557;50.982;-3.222;2022-09-30T09:05:26;8;8;
70915;PMS5003;58557;50.982;-3.222;2022-09-30T09:07:42;14;9;
70915;PMS5003;58557;50.982;-3.222;2022-09-30T09:10:17;12;9;
70915;PMS5003;58557;50.982;-3.222;2022-09-30T09:12:34;6;6;
70915;PMS5003;58557;50.982;-3.222;2022-09-30T09:15:03;12;9;
70915;PMS5003;58557;50.982;-3.222;2022-09-30T09:17:26;10;10;
70915;PMS5003;58557;50.982;-3.222;2022-09-30T09:19:55;6;6;
70915;PMS5003;58557;50.982;-3.222;2022-09-30T09:22:19;9;8;
70915;PMS5003;58557;50.982;-3.222;2022-09-30T09:24:40;10;7;
70915;PMS5003;58557;50.982;-3.222;2022-09-30T09:29:35;7;6;
70915;PMS5003;58557;50.982;-3.222;2022-09-30T09:32:01;10;9;
70915;PMS5003;58557;50.982;-3.222;2022-09-30T09:34:26;9;9;
70915;PMS5003;58557;50.982;-3.222;2022-09-30T09:36:52;8;6;
70915;PMS5003;58557;50.982;-3.222;2022-09-30T09:39:19;6;6;
70915;PMS5003;58557;50.982;-3.222;2022-09-30T09:41:41;7;7;
70915;PMS5003;58557;50.982;-3.222;2022-09-30T09:44:05;9;9;
70915;PMS5003;58557;50.982;-3.222;2022-09-30T09:46:38;8;8;
70915;PMS5003;58557;50.982;-3.222;2022-09-30T09:51:23;5;5;
70915;PMS5003;58557;50.982;-3.222;2022-09-30T09:53:47;8;7;
70915;PMS5003;58557;50.982;-3.222;2022-09-30T09:56:14;8;6;
70915;PMS5003;58557;50.982;-3.222;2022-09-30T09:58:39;5;5;
70915;PMS5003;58557;50.982;-3.222;2022-09-30T10:01:09;7;5;
70915;PMS5003;58557;50.982;-3.222;2022-09-30T10:03:30;7;7;
70915;PMS5003;58557;50.982;-3.222;2022-09-30T10:06:00;8;6;
70915;PMS5003;58557;50.982;-3.222;2022-09-30T10:08:21;6;6;
70915;PMS5003;58557;50.982;-3.222;2022-09-30T10:10:48;6;5;
70915;PMS5003;58557;50.982;-3.222;2022-09-30T10:13:18;6;6;
70915;PMS5003;58557;50.982;-3.222;2022-09-30T10:15:43;9;7;
70915;PMS5003;58557;50.982;-3.222;2022-09-30T10:18:04;6;6;
70915;PMS5003;58557;50.982;-3.222;2022-09-30T10:20:30;7;7;
70915;PMS5003;58557;50.982;-3.222;2022-09-30T10:22:59;5;5;
70915;PMS5003;58557;50.982;-3.222;2022-09-30T10:25:22;8;7;
70915;PMS5003;58557;50.982;-3.222;2022-09-30T10:27:49;6;6;
70915;PMS5003;58557;50.982;-3.222;2022-09-30T10:30:12;8;8;
70915;PMS5003;58557;50.982;-3.222;2022-09-30T10:32:42;8;8;
70915;PMS5003;58557;50.982;-3.222;2022-09-30T10:35:04;8;8;
70915;PMS5003;58557;50.982;-3.222;2022-09-30T10:37:29;8;8;
70915;PMS5003;58557;50.982;-3.222;2022-09-30T10:40:00;9;7;
70915;PMS5003;58557;50.982;-3.222;2022-09-30T10:42:21;8;6;
70915;PMS5003;58557;50.982;-3.222;2022-09-30T10:44:51;6;6;
70915;PMS5003;58557;50.982;-3.222;2022-09-30T10:47:17;7;5;
70915;PMS5003;58557;50.982;-3.222;2022-09-30T10:49:44;7;6;
70915;PMS5003;58557;50.982;-3.222;2022-09-30T10:52:03;7;5;
70915;PMS5003;58557;50.982;-3.222;2022-09-30T10:54:34;7;7;
70915;PMS5003;58557;50.982;-3.222;2022-09-30T10:56:54;6;6;
70915;PMS5003;58557;50.982;-3.222;2022-09-30T10:59:24;8;6;
70915;PMS5003;58557;50.982;-3.222;2022-09-30T11:01:46;7;6;
70915;PMS5003;58557;50.982;-3.222;2022-09-30T11:04:12;8;8;
70915;PMS5003;58557;50.982;-3.222;2022-09-30T11:06:38;9;8;
70915;PMS5003;58557;50.982;-3.222;2022-09-30T11:09:03;8;6;
70915;PMS5003;58557;50.982;-3.222;2022-09-30T11:11:31;9;9;
70915;PMS5003;58557;50.982;-3.222;2022-09-30T11:14:00;9;8;
70915;PMS5003;58557;50.982;-3.222;2022-09-30T11:16:20;10;8;
70915;PMS5003;58557;50.982;-3.222;2022-09-30T11:18:46;8;7;
70915;PMS5003;58557;50.982;-3.222;2022-09-30T11:21:11;8;8;
70915;PMS5003;58557;50.982;-3.222;2022-09-30T11:23:39;7;6;
70915;PMS5003;58557;50.982;-3.222;2022-09-30T11:26:04;8;7;
70915;PMS5003;58557;50.982;-3.222;2022-09-30T11:28:33;6;5;
70915;PMS5003;58557;50.982;-3.222;2022-09-30T11:30:55;6;6;
70915;PMS5003;58557;50.982;-3.222;2022-09-30T11:35:48;9;7;
70915;PMS5003;58557;50.982;-3.222;2022-09-30T11:40:37;8;8;
70915;PMS5003;58557;50.982;-3.222;2022-09-30T11:43:07;7;7;
70915;PMS5003;58557;50.982;-3.222;2022-09-30T11:45:35;9;9;
70915;PMS5003;58557;50.982;-3.222;2022-09-30T11:48:00;7;7;
70915;PMS5003;58557;50.982;-3.222;2022-09-30T11:50:25;8;8;
70915;PMS5003;58557;50.982;-3.222;2022-09-30T11:52:47;8;5;
70915;PMS5003;58557;50.982;-3.222;2022-09-30T11:57:38;6;6;
70915;PMS5003;58557;50.982;-3.222;2022-09-30T12:00:04;7;7;
70915;PMS5003;58557;50.982;-3.222;2022-09-30T12:02:29;5;5;
70915;PMS5003;58557;50.982;-3.222;2022-09-30T12:04:55;6;6;
70915;PMS5003;58557;50.982;-3.222;2022-09-30T12:07:20;9;9;
70915;PMS5003;58557;50.982;-3.222;2022-09-30T12:09:47;3;3;
70915;PMS5003;58557;50.982;-3.222;2022-09-30T12:12:16;6;6;
70915;PMS5003;58557;50.982;-3.222;2022-09-30T12:14:38;6;6;
70915;PMS5003;58557;50.982;-3.222;2022-09-30T12:17:10;7;6;
70915;PMS5003;58557;50.982;-3.222;2022-09-30T12:19:28;7;7;
70915;PMS5003;58557;50.982;-3.222;2022-09-30T12:21:54;9;9;
70915;PMS5003;58557;50.982;-3.222;2022-09-30T12:24:21;5;5;
70915;PMS5003;58557;50.982;-3.222;2022-09-30T12:26:44;6;4;
70915;PMS5003;58557;50.982;-3.222;2022-09-30T12:29:11;6;6;
70915;PMS5003;58557;50.982;-3.222;2022-09-30T12:31:59;4;4;
70915;PMS5003;58557;50.982;-3.222;2022-09-30T12:34:06;3;3;
70915;PMS5003;58557;50.982;-3.222;2022-09-30T12:36:35;5;4;
70915;PMS5003;58557;50.982;-3.222;2022-09-30T12:41:23;7;3;
70915;PMS5003;58557;50.982;-3.222;2022-09-30T12:46:16;3;3;
70915;PMS5003;58557;50.982;-3.222;2022-09-30T12:48:36;2;2;
70915;PMS5003;58557;50.982;-3.222;2022-09-30T12:51:01;2;2;
70915;PMS5003;58557;50.982;-3.222;2022-09-30T12:53:32;5;3;
70915;PMS5003;58557;50.982;-3.222;2022-09-30T12:55:52;2;2;
70915;PMS5003;58557;50.982;-3.222;2022-09-30T12:58:19;6;6;
70915;PMS5003;58557;50.982;-3.222;2022-09-30T13:00:44;4;3;
70915;PMS5003;58557;50.982;-3.222;2022-09-30T13:03:13;6;4;
70915;PMS5003;58557;50.982;-3.222;2022-09-30T13:08:08;5;5;
70915;PMS5003;58557;50.982;-3.222;2022-09-30T13:10:28;5;3;
70915;PMS5003;58557;50.982;-3.222;2022-09-30T13:15:26;3;3;
70915;PMS5003;58557;50.982;-3.222;2022-09-30T13:17:49;3;3;
70915;PMS5003;58557;50.982;-3.222;2022-09-30T13:25:03;4;4;
70915;PMS5003;58557;50.982;-3.222;2022-09-30T13:29:53;6;4;
70915;PMS5003;58557;50.982;-3.222;2022-09-30T13:32:30;3;3;
70915;PMS5003;58557;50.982;-3.222;2022-09-30T13:34:54;4;4;
70915;PMS5003;58557;50.982;-3.222;2022-09-30T13:42:05;4;4;
70915;PMS5003;58557;50.982;-3.222;2022-09-30T13:44:31;4;4;
70915;PMS5003;58557;50.982;-3.222;2022-09-30T13:46:55;2;2;
70915;PMS5003;58557;50.982;-3.222;2022-09-30T13:49:20;2;2;
70915;PMS5003;58557;50.982;-3.222;2022-09-30T13:51:45;3;3;
70915;PMS5003;58557;50.982;-3.222;2022-09-30T13:54:11;3;2;
70915;PMS5003;58557;50.982;-3.222;2022-09-30T13:56:36;1;1;
70915;PMS5003;58557;50.982;-3.222;2022-09-30T13:59:06;2;2;
70915;PMS5003;58557;50.982;-3.222;2022-09-30T14:01:32;5;3;
70915;PMS5003;58557;50.982;-3.222;2022-09-30T14:03:58;2;2;
70915;PMS5003;58557;50.982;-3.222;2022-09-30T14:06:21;4;3;
70915;PMS5003;58557;50.982;-3.222;2022-09-30T14:08:50;3;3;
70915;PMS5003;58557;50.982;-3.222;2022-09-30T14:11:13;2;2;
70915;PMS5003;58557;50.982;-3.222;2022-09-30T14:13:40;3;3;
70915;PMS5003;58557;50.982;-3.222;2022-09-30T14:16:07;5;4;
70915;PMS5003;58557;50.982;-3.222;2022-09-30T14:18:31;2;2;
70915;PMS5003;58557;50.982;-3.222;2022-09-30T14:20:58;1;1;
70915;PMS5003;58557;50.982;-3.222;2022-09-30T14:23:18;4;2;
70915;PMS5003;58557;50.982;-3.222;2022-09-30T14:25:45;1;1;
70915;PMS5003;58557;50.982;-3.222;2022-09-30T14:28:09;1;1;
70915;PMS5003;58557;50.982;-3.222;2022-09-30T14:30:37;2;2;
70915;PMS5003;58557;50.982;-3.222;2022-09-30T14:33:01;1;1;
70915;PMS5003;58557;50.982;-3.222;2022-09-30T14:35:27;1;1;
70915;PMS5003;58557;50.982;-3.222;2022-09-30T14:37:54;3;2;
70915;PMS5003;58557;50.982;-3.222;2022-09-30T14:40:19;2;2;
70915;PMS5003;58557;50.982;-3.222;2022-09-30T14:42:43;4;2;
70915;PMS5003;58557;50.982;-3.222;2022-09-30T14:45:11;4;2;
70915;PMS5003;58557;50.982;-3.222;2022-09-30T14:47:35;6;2;
70915;PMS5003;58557;50.982;-3.222;2022-09-30T14:50:01;1;1;
70915;PMS5003;58557;50.982;-3.222;2022-09-30T14:52:33;1;1;
70915;PMS5003;58557;50.982;-3.222;2022-09-30T14:54:52;3;3;
70915;PMS5003;58557;50.982;-3.222;2022-09-30T14:57:24;3;1;
70915;PMS5003;58557;50.982;-3.222;2022-09-30T14:59:43;2;2;
70915;PMS5003;58557;50.982;-3.222;2022-09-30T15:02:12;3;3;
70915;PMS5003;58557;50.982;-3.222;2022-09-30T15:04:40;5;4;
70915;PMS5003;58557;50.982;-3.222;2022-09-30T15:07:00;3;3;
70915;PMS5003;58557;50.982;-3.222;2022-09-30T15:09:32;4;3;
70915;PMS5003;58557;50.982;-3.222;2022-09-30T15:11:52;4;4;
70915;PMS5003;58557;50.982;-3.222;2022-09-30T15:14:22;3;3;
70915;PMS5003;58557;50.982;-3.222;2022-09-30T15:16:44;8;5;
70915;PMS5003;58557;50.982;-3.222;2022-09-30T15:19:17;2;2;
70915;PMS5003;58557;50.982;-3.222;2022-09-30T15:21:35;3;2;
70915;PMS5003;58557;50.982;-3.222;2022-09-30T15:24:00;3;1;
70915;PMS5003;58557;50.982;-3.222;2022-09-30T15:26:26;0;0;
70915;PMS5003;58557;50.982;-3.222;2022-09-30T15:28:52;2;1;
70915;PMS5003;58557;50.982;-3.222;2022-09-30T15:31:23;1;1;
70915;PMS5003;58557;50.982;-3.222;2022-09-30T15:33:43;2;1;
70915;PMS5003;58557;50.982;-3.222;2022-09-30T15:36:13;2;2;
70915;PMS5003;58557;50.982;-3.222;2022-09-30T15:38:40;3;3;
70915;PMS5003;58557;50.982;-3.222;2022-09-30T15:41:01;3;3;
70915;PMS5003;58557;50.982;-3.222;2022-09-30T15:43:34;2;2;
70915;PMS5003;58557;50.982;-3.222;2022-09-30T15:45:56;4;4;
70915;PMS5003;58557;50.982;-3.222;2022-09-30T15:50:43;3;3;
70915;PMS5003;58557;50.982;-3.222;2022-09-30T15:53:14;3;3;
70915;PMS5003;58557;50.982;-3.222;2022-09-30T15:55:36;4;4;
70915;PMS5003;58557;50.982;-3.222;2022-09-30T16:00:31;3;3;
70915;PMS5003;58557;50.982;-3.222;2022-09-30T16:02:51;2;2;
70915;PMS5003;58557;50.982;-3.222;2022-09-30T16:05:17;2;2;
70915;PMS5003;58557;50.982;-3.222;2022-09-30T16:07:45;2;2;
70915;PMS5003;58557;50.982;-3.222;2022-09-30T16:10:16;2;2;
70915;PMS5003;58557;50.982;-3.222;2022-09-30T16:12:34;1;1;
70915;PMS5003;58557;50.982;-3.222;2022-09-30T16:15:00;5;2;
70915;PMS5003;58557;50.982;-3.222;2022-09-30T16:17:26;2;2;
70915;PMS5003;58557;50.982;-3.222;2022-09-30T16:19:56;2;2;
70915;PMS5003;58557;50.982;-3.222;2022-09-30T16:24:44;2;2;
70915;PMS5003;58557;50.982;-3.222;2022-09-30T16:29:34;1;1;
70915;PMS5003;58557;50.982;-3.222;2022-09-30T16:31:59;2;2;
70915;PMS5003;58557;50.982;-3.222;2022-09-30T16:34:26;1;1;
70915;PMS5003;58557;50.982;-3.222;2022-09-30T16:36:51;2;2;
70915;PMS5003;58557;50.982;-3.222;2022-09-30T16:39:16;2;1;
70915;PMS5003;58557;50.982;-3.222;2022-09-30T16:41:42;2;2;
70915;PMS5003;58557;50.982;-3.222;2022-09-30T16:44:09;5;2;
70915;PMS5003;58557;50.982;-3.222;2022-09-30T16:46:33;4;3;
70915;PMS5003;58557;50.982;-3.222;2022-09-30T16:48:59;4;3;
70915;PMS5003;58557;50.982;-3.222;2022-09-30T16:51:25;3;3;
70915;PMS5003;58557;50.982;-3.222;2022-09-30T16:53:55;2;2;
70915;PMS5003;58557;50.982;-3.222;2022-09-30T16:56:17;4;1;
70915;PMS5003;58557;50.982;-3.222;2022-09-30T16:58:42;2;1;
70915;PMS5003;58557;50.982;-3.222;2022-09-30T17:01:17;2;2;